KESWICK RESERVOIR (KES)

Elevation: 596' · SACRAMENTO R basin · Operator: US Bureau of Reclamation

Provisional data, subject to change.
Query executed Friday at 20:26:03   clock

Select a sensor type for a plot of data.
Note: Reservoir Flows are daily averages.

Earlier

Date RES ELE    STORAGE    RES CHG    OUTFLOW    INFLOW   
 FEET   AF   AF   CFS   CFS  
06/30/2016 583.50 21587 -48 8691 8674
07/01/2016 583.83 21787 200 9399 9507
07/02/2016 584.07 21933 146 9390 9471
07/03/2016 583.59 21641 -292 9387 9248
07/04/2016 584.44 22161 520 9387 9655
07/05/2016 584.91 22451 290 9388 9542
07/06/2016 584.25 22044 -407 9410 9210
07/07/2016 584.09 21946 -98 9388 9346
07/08/2016 583.34 21489 -457 10052 9829
07/09/2016 582.48 20973 -516 10087 9832
07/10/2016 584.01 21896 923 10087 10558
07/11/2016 584.71 22328 432 10081 10303
07/12/2016 584.74 22347 19 10088 10106
07/13/2016 585.46 22796 449 10087 10319
07/14/2016 583.74 21732 -1064 10092 9562
07/15/2016 584.69 22316 584 10090 10391
07/16/2016 584.82 22396 80 10123 10171
07/17/2016 584.82 22396 0 10090 10099
07/18/2016 585.40 22758 362 10086 10276
07/19/2016 584.93 22464 -294 10090 9950
07/20/2016 584.65 22291 -173 10086 10005
07/21/2016 585.11 22576 285 10089 10239
07/22/2016 585.34 22721 145 10090 10169
07/23/2016 585.47 22802 81 10090 10138
07/24/2016 584.88 22433 -369 10088 9909
07/25/2016 584.72 22334 -99 10085 10044
07/26/2016 584.73 22340 6 10044 10055
07/27/2016 583.96 21866 -474 9966 9735
07/28/2016 584.18 22001 135 10151 10227
07/29/2016 -- -- -- -- --

Later | Latest

Warning! This data is preliminary and subject to revision.

Show KES Map | Plot KES Data | 1 Month KES Data | Real-Time KES Data | KES Info